EDFH/HHN METAR and TAF weather

Enter ICAO airport designator
Station Type Date Time Source
EDFH METAR 2019/08/19 22:50 UTC NOAA

EDFH 192250Z 24004KT CAVOK 12/08 Q1022


Station Type Date Time Source
EDFH Decoded METAR 2019/08/19 22:50 UTC NOAA

Hahn, Germany (EDFH) 49-57N 007-16E 498M
Aug 19, 2019 - 06:50 PM EDT / 2019.08.19 2250 UTC
Wind: from the WSW (240 degrees) at 5 MPH (4 KT):0
Visibility: greater than 7 mile(s):0
Temperature: 53 F (12 C)
Dew Point: 46 F (8 C)
Relative Humidity: 76%
Pressure (altimeter): 30.18 in. Hg (1022 hPa)
ob: EDFH 192250Z 24004KT CAVOK 12/08 Q1022
cycle: 23

Station Type Date Time Source
EDFH TAF 2019/08/19 18:27 UTC NOAA

TAF EDFH 191700Z 1918/2018 27006KT 9999 FEW045

Example: see airport list